Andover, OH (44003)

1:23 AM EST on February 22, 2017 (GMT -0500)
Maple Grove (Sunset Knolls) | | Change Station

Elev 1033 ft 41.59 °N, 80.50 °W | Updated 18 seconds ago

Overcast
Overcast
45.9 °F
Feels Like 46 °F
N
0.0
Wind Variable Wind from SSE

Today
High -- | Low -- °F
--% Chance of Precip.
Yesterday
High -- | Low -- °F
Precip. -- in
Pressure 29.94 in
Visibility 10.0 miles
Clouds Overcast 9000 ft
Windchill 46 °F
Dew Point 43 °F
Humidity 90%
Rainfall 0.00 in
Snow Depth Not available.
7:07 AM 6:04 PM
Waning Crescent, 19% visible
METAR KHZY 220553Z AUTO 00000KT 10SM OVC090 08/07 A2993 RMK AO2 SLP137 T00830067 10139 20072 56016 TSNO
Pressure 29.94 in
Visibility 10.0 miles
Clouds Overcast 9000 ft
Windchill 46 °F
Dew Point 43 °F
Humidity 90%
Rainfall 0.00 in
Snow Depth Not available.
7:07 AM 6:04 PM
Waning Crescent, 19% visible
METAR KHZY 220553Z AUTO 00000KT 10SM OVC090 08/07 A2993 RMK AO2 SLP137 T00830067 10139 20072 56016 TSNO

Get Your Daily Forecast Email!

Thanks for signing up!

Be on the lookout for a verification email in your inbox.

You'll start receiving the daily forecast at 8 AM.

×

10-Day Weather Forecast

Almanac

Astronomy

Feb. 22, 2017 Rise Set
Actual Time
Civil Twilight
Nautical Twilight
Astronomical Twilight
Moon
Length of Visible Light
Length of Day
Tomorrow will be .
, % of the Moon is Illuminated

Today's Extremes

State Highs State Lows

Community

WunderPhotos

Upload Photos

1,962,540 photos uploaded!

WunderBlog® & News

Nearby

Air Quality

  Air Quality AQ Index Pollutant
Not available.

Snow Depth

Station Depth Elevation

Earthquake Activity

City Distance Mag. Time & Date
Minimum magnitude displayed is 2.5.

Coastal Water Temperatures

Place Temperature

Stations

Nearby Weather Stations

Station Location Temp. Windchill Dew Point Humidity Wind Precip. Elev Updated Type
                   

Watches & Warnings

There are currently no watches in effect.